Time;durP1;ratioP1;P1;durP2;ratioP2;P2;SDS_P1;SDS_P2;PMS_P1;PMS_P2;Temp;Humidity;BMP_temperature;BMP_pressure;BME280_temperature;BME280_humidity;BME280_pressure;Samples;Min_cycle;Max_cycle;Signal;HPM_P1;HPM_P2
2022/04/24 00:01:57;;;;;;;21.27;15.98;;;11.10;72.50;;;;;;5060709;28;20037;-65
2022/04/24 00:04:24;;;;;;;22.00;15.80;;;11.10;72.60;;;;;;5056216;28;20480;-65
2022/04/24 00:06:53;;;;;;;22.17;14.98;;;11.10;72.70;;;;;;5058205;28;20033;-66
2022/04/24 00:09:20;;;;;;;19.15;14.02;;;11.00;73.00;;;;;;5057262;28;20528;-65
2022/04/24 00:11:46;;;;;;;20.48;14.85;;;11.00;73.00;;;;;;5058033;28;20040;-66
2022/04/24 00:14:12;;;;;;;18.63;13.45;;;11.00;73.00;;;;;;5057886;28;20535;-65
2022/04/24 00:16:38;;;;;;;18.48;14.00;;;11.00;73.20;;;;;;5057593;28;20516;-65
2022/04/24 00:19:04;;;;;;;18.70;13.85;;;11.00;73.40;;;;;;5056876;28;20253;-65
2022/04/24 00:21:31;;;;;;;20.73;16.10;;;10.90;73.60;;;;;;5055258;28;20557;-65
2022/04/24 00:23:57;;;;;;;19.30;14.15;;;10.90;74.40;;;;;;5055471;28;20040;-63
2022/04/24 00:26:22;;;;;;;20.35;15.32;;;10.90;74.20;;;;;;5057490;28;20032;-66
2022/04/24 00:28:48;;;;;;;19.52;14.05;;;10.90;74.50;;;;;;5056423;28;20406;-65
2022/04/24 00:31:14;;;;;;;19.92;14.02;;;10.90;74.40;;;;;;5054295;28;20025;-65
2022/04/24 00:33:39;;;;;;;20.70;14.68;;;10.80;74.40;;;;;;5055729;28;20279;-66
2022/04/24 00:36:05;;;;;;;19.25;14.25;;;10.80;74.80;;;;;;5054562;28;20040;-66
2022/04/24 00:38:34;;;;;;;19.70;14.50;;;10.80;74.90;;;;;;5057360;28;20025;-66
2022/04/24 00:41:00;;;;;;;21.90;15.27;;;10.80;74.80;;;;;;5053886;28;20025;-65
2022/04/24 00:43:25;;;;;;;21.63;15.30;;;10.90;74.90;;;;;;5056364;28;20029;-65
2022/04/24 00:45:59;;;;;;;20.80;14.70;;;10.90;75.40;;;;;;5057418;28;20024;-65
2022/04/24 00:48:26;;;;;;;19.27;14.05;;;10.90;75.30;;;;;;5058502;28;20581;-64
2022/04/24 00:50:52;;;;;;;20.48;15.07;;;10.90;75.20;;;;;;5057076;28;20225;-66
2022/04/24 00:53:17;;;;;;;20.13;14.95;;;10.90;75.40;;;;;;5057207;28;20028;-64
2022/04/24 00:55:44;;;;;;;20.65;15.07;;;10.90;75.40;;;;;;5055483;28;20104;-66
2022/04/24 00:58:10;;;;;;;21.88;15.52;;;10.90;75.30;;;;;;5052132;28;20020;-66
2022/04/24 01:00:38;;;;;;;21.00;15.23;;;10.90;75.40;;;;;;5056710;28;20052;-66
2022/04/24 01:03:04;;;;;;;21.77;16.27;;;11.00;75.50;;;;;;5052297;28;20039;-66
2022/04/24 01:05:30;;;;;;;22.40;15.93;;;11.00;75.60;;;;;;5053898;28;20058;-66
2022/04/24 01:07:56;;;;;;;20.63;15.43;;;11.00;75.50;;;;;;5055309;28;20521;-63
2022/04/24 01:10:21;;;;;;;19.95;14.77;;;11.00;75.30;;;;;;5053095;28;20029;-65
2022/04/24 01:12:47;;;;;;;23.48;15.68;;;11.10;75.40;;;;;;5053704;28;20568;-66
2022/04/24 01:15:13;;;;;;;23.13;16.08;;;11.10;75.40;;;;;;5053298;28;20055;-66
2022/04/24 01:17:39;;;;;;;22.30;15.40;;;11.10;75.40;;;;;;5057043;28;20061;-66
2022/04/24 01:20:05;;;;;;;22.35;16.50;;;11.20;75.40;;;;;;5053440;28;20033;-66
2022/04/24 01:22:31;;;;;;;22.38;16.48;;;11.20;75.40;;;;;;5055330;28;20437;-65
2022/04/24 01:24:57;;;;;;;22.17;16.23;;;11.20;75.70;;;;;;5052448;28;20036;-65
2022/04/24 01:27:22;;;;;;;22.80;16.60;;;11.20;75.40;;;;;;5055087;28;20553;-65
2022/04/24 01:29:48;;;;;;;20.58;15.43;;;11.20;75.40;;;;;;5056491;28;20494;-66
2022/04/24 01:32:14;;;;;;;21.60;15.77;;;11.30;75.30;;;;;;5057488;28;20029;-65
2022/04/24 01:34:39;;;;;;;24.23;17.77;;;11.20;75.20;;;;;;5052210;28;20114;-66
2022/04/24 01:37:05;;;;;;;23.67;16.88;;;11.30;75.40;;;;;;5053484;28;20029;-65
2022/04/24 01:39:31;;;;;;;21.40;16.45;;;11.30;75.40;;;;;;5052609;28;20428;-65
2022/04/24 01:41:56;;;;;;;22.27;16.35;;;11.30;75.30;;;;;;5051069;28;20036;-65
2022/04/24 01:44:22;;;;;;;21.23;16.25;;;11.40;75.30;;;;;;5052975;28;20127;-65
2022/04/24 01:46:47;;;;;;;22.33;16.60;;;11.40;75.20;;;;;;5053413;28;20033;-64
2022/04/24 01:49:13;;;;;;;22.38;16.75;;;11.40;75.20;;;;;;5050478;28;20203;-65
2022/04/24 01:51:39;;;;;;;21.95;16.45;;;11.40;75.10;;;;;;5056925;28;20037;-66
2022/04/24 01:54:04;;;;;;;22.75;16.60;;;11.50;75.10;;;;;;5055175;28;20446;-66
2022/04/24 01:56:30;;;;;;;23.02;16.23;;;11.50;74.90;;;;;;5054031;28;20493;-66
2022/04/24 01:58:56;;;;;;;24.15;17.58;;;11.50;74.80;;;;;;5054499;28;20025;-66
2022/04/24 02:01:21;;;;;;;25.38;17.67;;;11.60;75.10;;;;;;5050981;28;20090;-66
2022/04/24 02:03:47;;;;;;;25.00;18.25;;;11.60;75.30;;;;;;5053805;28;20037;-65
2022/04/24 02:06:13;;;;;;;23.45;17.48;;;11.60;75.30;;;;;;5053016;28;20036;-65
2022/04/24 02:08:38;;;;;;;26.90;18.45;;;11.60;75.30;;;;;;5054734;28;20036;-66
2022/04/24 02:11:05;;;;;;;24.60;17.05;;;11.60;75.40;;;;;;5050916;28;20040;-65
2022/04/24 02:13:30;;;;;;;23.20;17.48;;;11.50;75.40;;;;;;5053945;28;20098;-65
2022/04/24 02:15:56;;;;;;;24.98;17.98;;;11.50;75.40;;;;;;5053164;28;20029;-65
2022/04/24 02:18:22;;;;;;;26.35;18.38;;;11.60;75.70;;;;;;5051176;28;20052;-64
2022/04/24 02:20:47;;;;;;;24.63;17.83;;;11.60;75.80;;;;;;5054410;28;20618;-62
2022/04/24 02:23:13;;;;;;;24.77;18.05;;;11.60;76.00;;;;;;5052459;28;20033;-65
2022/04/24 02:25:38;;;;;;;25.63;18.02;;;11.60;76.20;;;;;;5054122;28;20485;-64
2022/04/24 02:28:04;;;;;;;23.13;17.27;;;11.50;76.20;;;;;;5053213;28;20033;-64
2022/04/24 02:30:30;;;;;;;22.38;17.33;;;11.50;76.30;;;;;;5054985;28;20047;-65
2022/04/24 02:32:58;;;;;;;24.88;17.42;;;11.50;76.50;;;;;;5055135;28;20037;-64
2022/04/24 02:35:24;;;;;;;23.88;17.02;;;11.50;76.70;;;;;;5051265;28;20514;-62
2022/04/24 02:37:50;;;;;;;23.90;18.13;;;11.40;76.70;;;;;;5052743;28;20036;-64
2022/04/24 02:40:21;;;;;;;25.58;17.77;;;11.50;76.90;;;;;;5048355;28;20036;-63
2022/04/24 02:42:48;;;;;;;22.83;17.17;;;11.50;76.90;;;;;;5054475;28;20063;-64
2022/04/24 02:45:14;;;;;;;23.05;17.70;;;11.50;76.80;;;;;;5052067;28;20041;-64
2022/04/24 02:47:39;;;;;;;24.85;17.73;;;11.50;77.00;;;;;;5053791;28;20044;-63
2022/04/24 02:50:05;;;;;;;24.45;17.63;;;11.50;77.00;;;;;;5053687;28;20520;-64
2022/04/24 02:52:31;;;;;;;23.90;17.40;;;11.50;77.00;;;;;;5052384;28;20266;-64
2022/04/24 02:54:57;;;;;;;26.60;18.30;;;11.60;77.00;;;;;;5052272;28;20047;-64
2022/04/24 02:57:22;;;;;;;22.85;17.35;;;11.60;77.00;;;;;;5053032;28;20032;-63
2022/04/24 02:59:49;;;;;;;25.63;18.80;;;11.70;76.80;;;;;;5052567;28;20037;-64
2022/04/24 03:02:18;;;;;;;25.20;17.60;;;11.70;76.80;;;;;;5054014;28;20047;-63
2022/04/24 03:04:47;;;;;;;24.67;18.00;;;11.60;76.80;;;;;;5057075;28;20167;-64
2022/04/24 03:07:13;;;;;;;24.30;17.48;;;11.70;76.80;;;;;;5052306;28;20148;-64
2022/04/24 03:09:39;;;;;;;24.35;17.17;;;11.70;76.70;;;;;;5052490;28;20082;-64
2022/04/24 03:12:06;;;;;;;24.70;18.00;;;11.80;76.60;;;;;;5053391;28;20090;-64
2022/04/24 03:14:31;;;;;;;23.90;17.20;;;11.80;76.60;;;;;;5050741;28;21283;-64
2022/04/24 03:16:57;;;;;;;23.67;17.77;;;11.80;76.50;;;;;;5052503;28;20033;-64
2022/04/24 03:19:22;;;;;;;24.85;18.33;;;11.70;76.60;;;;;;5052352;28;20021;-64
2022/04/24 03:21:48;;;;;;;24.67;18.15;;;11.70;76.50;;;;;;5053297;28;20036;-65
2022/04/24 03:24:14;;;;;;;25.65;18.65;;;11.70;76.60;;;;;;5053943;28;20043;-64
2022/04/24 03:26:39;;;;;;;25.35;17.92;;;11.70;76.80;;;;;;5054046;28;20040;-64
2022/04/24 03:29:05;;;;;;;26.42;18.42;;;11.70;76.80;;;;;;5052593;28;20450;-61
2022/04/24 03:31:30;;;;;;;24.90;18.42;;;11.60;76.70;;;;;;5055270;28;20041;-64
2022/04/24 03:33:56;;;;;;;27.42;18.77;;;11.60;77.00;;;;;;5056215;28;20056;-64
2022/04/24 03:36:22;;;;;;;24.02;17.48;;;11.50;77.20;;;;;;5055676;28;20044;-64
2022/04/24 03:38:47;;;;;;;24.75;17.42;;;11.50;77.50;;;;;;5056257;28;20037;-65
2022/04/24 03:41:13;;;;;;;26.00;18.05;;;11.50;77.60;;;;;;5058456;28;22298;-64
2022/04/24 03:43:38;;;;;;;27.00;18.83;;;11.40;77.60;;;;;;5056620;28;20469;-64
2022/04/24 03:46:07;;;;;;;26.77;19.52;;;11.40;77.70;;;;;;5061416;28;20476;-64
2022/04/24 03:48:34;;;;;;;28.27;19.55;;;11.30;77.90;;;;;;5055887;28;20064;-64
2022/04/24 03:51:01;;;;;;;31.25;20.42;;;11.30;78.20;;;;;;5057877;28;20129;-63
2022/04/24 03:53:26;;;;;;;29.42;21.52;;;11.30;78.60;;;;;;5055445;28;20528;-64
2022/04/24 03:55:52;;;;;;;28.45;19.60;;;11.30;78.90;;;;;;5055197;28;20040;-64
2022/04/24 03:58:18;;;;;;;28.00;18.15;;;11.20;79.00;;;;;;5054949;28;20040;-64
2022/04/24 04:00:43;;;;;;;25.15;17.67;;;11.20;79.30;;;;;;5056997;28;20072;-64
2022/04/24 04:03:09;;;;;;;22.58;16.48;;;11.20;79.30;;;;;;5054189;28;20917;-64
2022/04/24 04:05:38;;;;;;;24.85;17.27;;;11.20;79.20;;;;;;5056801;28;20040;-64
2022/04/24 04:08:04;;;;;;;36.13;23.20;;;11.20;79.40;;;;;;5056065;28;20033;-65
2022/04/24 04:10:30;;;;;;;28.45;20.25;;;11.30;79.10;;;;;;5053162;28;20025;-64
2022/04/24 04:12:56;;;;;;;28.30;18.52;;;11.30;79.10;;;;;;5040704;28;20057;-64
2022/04/24 04:15:22;;;;;;;28.85;19.67;;;11.30;79.20;;;;;;5056729;28;20530;-63
2022/04/24 04:17:48;;;;;;;30.50;19.98;;;11.30;79.30;;;;;;5059588;28;20063;-64
2022/04/24 04:20:13;;;;;;;28.40;20.40;;;11.30;79.60;;;;;;5053757;28;20583;-64
2022/04/24 04:22:53;;;;;;;27.83;19.67;;;11.30;79.80;;;;;;5053474;28;20045;-64
2022/04/24 04:25:19;;;;;;;26.02;18.17;;;11.30;80.50;;;;;;5055542;28;20044;-64
2022/04/24 04:27:45;;;;;;;26.38;18.48;;;11.30;79.90;;;;;;5056872;28;20048;-64
2022/04/24 04:30:11;;;;;;;26.42;17.48;;;11.30;80.20;;;;;;5054800;28;20033;-64
2022/04/24 04:32:37;;;;;;;22.27;16.05;;;11.30;80.70;;;;;;5054321;28;20459;-65
2022/04/24 04:35:04;;;;;;;25.42;16.90;;;11.20;81.00;;;;;;5056176;28;20036;-65
2022/04/24 04:37:31;;;;;;;22.58;15.68;;;11.20;81.40;;;;;;5053626;28;21926;-64
2022/04/24 04:39:57;;;;;;;16.30;11.90;;;11.10;81.70;;;;;;5057016;28;20044;-64
2022/04/24 04:42:23;;;;;;;15.15;10.65;;;11.10;81.70;;;;;;5055983;28;20037;-64
2022/04/24 04:44:48;;;;;;;12.43;9.73;;;11.00;81.80;;;;;;5054637;28;20363;-65
2022/04/24 04:47:14;;;;;;;10.95;8.40;;;11.00;81.80;;;;;;5054215;28;20506;-64
2022/04/24 04:49:39;;;;;;;10.05;7.55;;;10.90;81.70;;;;;;5055853;28;20082;-64
2022/04/24 04:52:05;;;;;;;7.63;5.85;;;10.80;81.50;;;;;;5055525;28;20606;-65
2022/04/24 04:54:31;;;;;;;8.20;6.53;;;10.80;81.20;;;;;;5053298;28;20040;-65
2022/04/24 04:56:56;;;;;;;7.22;6.10;;;10.70;81.30;;;;;;5054140;28;20041;-64
2022/04/24 04:59:22;;;;;;;9.70;6.70;;;10.70;81.30;;;;;;5053966;28;20028;-65
2022/04/24 05:01:47;;;;;;;8.93;7.00;;;10.70;81.40;;;;;;5055742;28;20049;-65
2022/04/24 05:04:13;;;;;;;9.38;6.85;;;10.70;81.50;;;;;;5053609;28;20071;-64
2022/04/24 05:06:39;;;;;;;9.13;7.22;;;10.70;81.60;;;;;;5055434;28;20064;-64
2022/04/24 05:09:05;;;;;;;8.68;5.88;;;10.70;81.20;;;;;;5052024;28;20064;-64
2022/04/24 05:11:31;;;;;;;7.88;4.80;;;10.70;81.00;;;;;;5052062;28;20037;-64
2022/04/24 05:13:57;;;;;;;8.20;5.80;;;10.70;81.00;;;;;;5052826;28;20029;-65
2022/04/24 05:16:22;;;;;;;8.68;5.25;;;10.70;80.80;;;;;;5055159;28;20419;-64
2022/04/24 05:18:48;;;;;;;6.00;4.30;;;10.70;80.50;;;;;;5052580;28;20425;-64
2022/04/24 05:21:13;;;;;;;4.40;2.88;;;10.70;80.30;;;;;;5055249;28;20040;-64
2022/04/24 05:23:42;;;;;;;3.30;2.40;;;10.70;80.20;;;;;;5052185;28;20541;-64
2022/04/24 05:26:07;;;;;;;2.72;1.90;;;10.60;80.10;;;;;;5054471;28;20544;-65
2022/04/24 05:28:33;;;;;;;1.90;1.70;;;10.60;80.10;;;;;;5051929;28;20032;-65
2022/04/24 05:30:59;;;;;;;2.00;1.60;;;10.60;80.00;;;;;;5054802;28;20242;-64
2022/04/24 05:33:24;;;;;;;1.23;1.13;;;10.60;79.80;;;;;;5055666;28;20500;-63
2022/04/24 05:35:50;;;;;;;2.55;1.30;;;10.60;79.60;;;;;;5053054;28;20043;-65
2022/04/24 05:38:15;;;;;;;1.20;1.05;;;10.50;79.50;;;;;;5052274;28;20035;-64
2022/04/24 05:40:41;;;;;;;0.85;0.73;;;10.50;79.60;;;;;;5052931;28;20028;-64
2022/04/24 05:43:07;;;;;;;1.08;1.00;;;10.50;79.50;;;;;;5053584;28;20033;-65
2022/04/24 05:45:33;;;;;;;0.80;0.80;;;10.50;79.40;;;;;;5050991;28;20112;-64
2022/04/24 05:47:59;;;;;;;1.00;0.90;;;10.50;79.30;;;;;;5056978;28;20020;-65
2022/04/24 05:50:25;;;;;;;0.90;0.73;;;10.50;79.30;;;;;;5055274;28;20025;-64
2022/04/24 05:52:56;;;;;;;2.17;0.75;;;10.50;79.30;;;;;;5055050;28;22345;-65
2022/04/24 05:55:22;;;;;;;2.10;0.60;;;10.40;79.40;;;;;;5054643;28;20041;-64
2022/04/24 05:57:50;;;;;;;0.90;0.80;;;10.40;79.30;;;;;;5055540;28;20032;-65
2022/04/24 06:00:16;;;;;;;1.10;0.63;;;10.40;79.30;;;;;;5054140;28;20047;-64
2022/04/24 06:02:43;;;;;;;0.60;0.60;;;10.50;79.30;;;;;;5050120;28;20029;-65
2022/04/24 06:05:12;;;;;;;1.98;1.63;;;10.50;79.30;;;;;;5054091;28;20037;-64
2022/04/24 06:07:41;;;;;;;4.55;3.28;;;10.50;79.30;;;;;;5055768;28;20036;-65
2022/04/24 06:10:08;;;;;;;6.30;4.43;;;10.50;79.40;;;;;;5053949;28;20036;-64
2022/04/24 06:12:48;;;;;;;2.03;1.80;;;10.50;79.20;;;;;;5054594;28;20397;-64
2022/04/24 06:15:20;;;;;;;2.63;2.20;;;10.50;79.50;;;;;;5055547;28;20352;-65
2022/04/24 06:17:52;;;;;;;1.48;1.35;;;10.50;79.10;;;;;;5055442;28;20071;-64
2022/04/24 06:20:19;;;;;;;1.50;1.40;;;10.50;79.00;;;;;;5053320;28;20064;-64
2022/04/24 06:22:58;;;;;;;0.82;0.80;;;10.40;78.90;;;;;;5054191;28;20106;-64
2022/04/24 06:25:31;;;;;;;0.63;0.63;;;10.50;78.90;;;;;;5052194;28;20036;-62
2022/04/24 06:27:58;;;;;;;0.63;0.63;;;10.40;78.70;;;;;;5054395;28;20381;-64
2022/04/24 06:30:29;;;;;;;0.68;0.50;;;10.40;78.60;;;;;;5057027;28;20037;-65
2022/04/24 06:32:56;;;;;;;0.70;0.43;;;10.40;78.90;;;;;;5054588;28;20545;-64
2022/04/24 06:35:22;;;;;;;0.75;0.60;;;10.40;78.70;;;;;;5052041;28;20052;-65
2022/04/24 06:37:55;;;;;;;1.55;0.90;;;10.40;78.80;;;;;;5054973;28;20575;-64
2022/04/24 06:40:23;;;;;;;1.40;0.80;;;10.40;78.90;;;;;;5050999;28;20033;-64
2022/04/24 06:43:00;;;;;;;1.08;0.45;;;10.40;78.80;;;;;;5041385;28;20137;-63
2022/04/24 06:45:37;;;;;;;1.90;1.42;;;10.40;79.10;;;;;;5044083;28;20061;-64
2022/04/24 06:48:05;;;;;;;5.35;4.82;;;10.40;78.80;;;;;;5047233;28;20118;-64
2022/04/24 06:50:32;;;;;;;5.15;4.65;;;10.40;78.60;;;;;;5049971;28;20563;-64
2022/04/24 06:53:04;;;;;;;1.27;1.17;;;10.50;78.80;;;;;;5052304;28;20094;-65
2022/04/24 06:55:32;;;;;;;1.13;0.90;;;10.50;78.80;;;;;;5051976;28;20041;-64
2022/04/24 06:57:59;;;;;;;0.45;0.45;;;10.50;78.90;;;;;;5051997;28;20413;-65
2022/04/24 07:00:25;;;;;;;0.60;0.40;;;10.50;78.70;;;;;;5053084;28;20084;-65
2022/04/24 07:02:51;;;;;;;1.33;0.20;;;10.50;78.70;;;;;;5049805;28;20386;-64
2022/04/24 07:05:20;;;;;;;2.80;0.98;;;10.50;78.60;;;;;;5055192;28;20044;-64
2022/04/24 07:07:45;;;;;;;2.22;1.25;;;10.50;78.70;;;;;;5056296;28;20036;-65
2022/04/24 07:10:11;;;;;;;0.90;0.60;;;10.50;78.70;;;;;;5060122;28;20028;-64
2022/04/24 07:12:44;;;;;;;3.20;1.50;;;10.50;78.60;;;;;;5050871;28;20040;-65
2022/04/24 07:15:10;;;;;;;1.25;0.68;;;10.50;78.70;;;;;;5056093;28;20086;-65
2022/04/24 07:17:35;;;;;;;1.48;0.63;;;10.50;78.60;;;;;;5057913;28;20037;-65
2022/04/24 07:20:01;;;;;;;2.97;1.98;;;10.50;78.40;;;;;;5058352;28;20036;-65
2022/04/24 07:22:26;;;;;;;2.50;1.50;;;10.50;78.30;;;;;;5056982;28;20052;-64
2022/04/24 07:24:52;;;;;;;3.05;1.80;;;10.60;78.30;;;;;;5056709;28;20037;-65
2022/04/24 07:27:17;;;;;;;5.50;1.40;;;10.60;78.20;;;;;;5058507;28;21036;-64
2022/04/24 07:29:43;;;;;;;6.03;1.77;;;10.60;78.30;;;;;;5055885;28;20028;-63
2022/04/24 07:32:09;;;;;;;3.65;1.30;;;10.60;78.40;;;;;;5056635;28;20056;-65
2022/04/24 07:34:34;;;;;;;4.32;0.90;;;10.60;78.40;;;;;;5059751;28;20036;-65
2022/04/24 07:37:00;;;;;;;3.10;1.33;;;10.70;78.50;;;;;;5055321;28;20051;-65
2022/04/24 07:39:25;;;;;;;3.03;1.92;;;10.70;78.40;;;;;;5061455;28;20037;-64
2022/04/24 07:41:51;;;;;;;2.25;1.00;;;10.80;78.40;;;;;;5057316;28;20033;-64
2022/04/24 07:44:17;;;;;;;0.90;0.80;;;10.80;78.40;;;;;;5058290;28;20033;-65
2022/04/24 07:46:42;;;;;;;0.50;0.50;;;10.90;78.20;;;;;;5058619;28;20171;-64
2022/04/24 07:49:08;;;;;;;0.38;0.22;;;10.90;77.90;;;;;;5057586;28;20040;-64
2022/04/24 07:51:34;;;;;;;0.63;0.30;;;10.90;77.90;;;;;;5056467;28;20036;-64
2022/04/24 07:53:59;;;;;;;0.32;0.20;;;10.90;77.60;;;;;;5054540;28;20143;-65
2022/04/24 07:56:25;;;;;;;1.30;0.30;;;10.90;77.50;;;;;;5052881;28;20427;-63
2022/04/24 07:58:51;;;;;;;0.45;0.20;;;10.90;77.70;;;;;;5055269;28;20047;-65
2022/04/24 08:01:17;;;;;;;0.30;0.30;;;11.00;77.70;;;;;;5055528;28;20047;-65
2022/04/24 08:03:43;;;;;;;2.45;0.30;;;11.00;77.70;;;;;;5055812;28;20675;-64
2022/04/24 08:06:09;;;;;;;1.50;0.50;;;11.00;77.30;;;;;;5058046;28;20036;-63
2022/04/24 08:08:34;;;;;;;0.63;0.40;;;11.00;77.20;;;;;;5057423;28;20032;-64
2022/04/24 08:11:00;;;;;;;2.42;1.40;;;11.00;77.10;;;;;;5056300;28;20033;-65
2022/04/24 08:13:26;;;;;;;0.73;0.40;;;11.00;77.30;;;;;;5057387;28;20086;-64
2022/04/24 08:15:53;;;;;;;1.00;0.70;;;11.10;77.50;;;;;;5057800;28;20044;-65
2022/04/24 08:18:20;;;;;;;0.50;0.50;;;11.10;77.30;;;;;;5055097;28;20041;-64
2022/04/24 08:20:46;;;;;;;0.52;0.52;;;11.10;77.40;;;;;;5055014;28;20123;-64
2022/04/24 08:23:15;;;;;;;0.60;0.60;;;11.20;77.40;;;;;;5055919;28;20044;-65
2022/04/24 08:25:40;;;;;;;0.70;0.50;;;11.20;77.10;;;;;;5057636;28;21005;-64
2022/04/24 08:28:09;;;;;;;0.43;0.30;;;11.20;76.80;;;;;;5061111;28;20041;-65
2022/04/24 08:30:48;;;;;;;0.30;0.30;;;11.20;76.60;;;;;;5058229;28;20033;-65
2022/04/24 08:33:15;;;;;;;0.40;0.40;;;11.20;76.60;;;;;;5056496;28;20037;-65
2022/04/24 08:35:41;;;;;;;0.30;0.30;;;11.20;76.70;;;;;;5057352;28;20048;-64
2022/04/24 08:38:07;;;;;;;1.75;0.20;;;11.20;76.60;;;;;;5056116;28;20039;-65
2022/04/24 08:40:33;;;;;;;1.42;0.20;;;11.20;76.60;;;;;;5055072;28;20045;-65
2022/04/24 08:43:00;;;;;;;0.22;0.20;;;11.30;76.60;;;;;;5054043;28;20033;-64
2022/04/24 08:45:27;;;;;;;0.30;0.30;;;11.30;76.40;;;;;;5055030;28;20032;-64
2022/04/24 08:47:54;;;;;;;0.30;0.28;;;11.30;76.20;;;;;;5057557;28;20044;-65
2022/04/24 08:50:20;;;;;;;1.08;0.98;;;11.30;76.20;;;;;;5059921;28;20062;-65
2022/04/24 08:52:48;;;;;;;0.28;0.28;;;11.30;76.30;;;;;;5055821;28;20044;-64
2022/04/24 08:55:15;;;;;;;0.98;0.93;;;11.30;76.20;;;;;;5056261;28;20029;-65
2022/04/24 08:57:40;;;;;;;1.75;0.80;;;11.40;76.30;;;;;;5058731;28;20401;-65
2022/04/24 09:00:08;;;;;;;0.30;0.30;;;11.40;76.10;;;;;;5057536;28;20028;-65
2022/04/24 09:02:36;;;;;;;0.30;0.30;;;11.40;76.00;;;;;;5055746;28;20182;-65
2022/04/24 09:05:06;;;;;;;0.30;0.30;;;11.50;75.90;;;;;;5055490;28;20047;-64
2022/04/24 09:07:33;;;;;;;0.77;0.77;;;11.50;76.00;;;;;;5054246;28;20439;-64
2022/04/24 09:10:11;;;;;;;1.10;1.00;;;11.50;76.00;;;;;;5055152;28;20087;-64
2022/04/24 09:12:38;;;;;;;0.80;0.70;;;11.60;75.80;;;;;;5055053;28;20508;-65
2022/04/24 09:15:04;;;;;;;0.47;0.47;;;11.60;75.60;;;;;;5054891;28;20525;-64
2022/04/24 09:17:34;;;;;;;1.05;0.75;;;11.70;75.50;;;;;;5055326;28;20075;-65
2022/04/24 09:20:01;;;;;;;0.65;0.65;;;11.70;75.30;;;;;;5059926;28;20078;-64
2022/04/24 09:22:27;;;;;;;1.63;0.98;;;11.80;75.30;;;;;;5050098;28;20037;-65
2022/04/24 09:24:59;;;;;;;0.45;0.45;;;11.80;75.10;;;;;;5058313;28;20036;-65
2022/04/24 09:27:27;;;;;;;3.75;0.50;;;11.80;74.70;;;;;;5055964;28;20099;-65
2022/04/24 09:30:00;;;;;;;0.60;0.60;;;11.90;74.60;;;;;;5056055;28;20037;-65
2022/04/24 09:32:28;;;;;;;0.65;0.65;;;11.90;74.20;;;;;;5056987;28;20036;-65
2022/04/24 09:34:55;;;;;;;0.60;0.60;;;12.00;74.40;;;;;;5055995;28;20174;-65
2022/04/24 09:37:21;;;;;;;0.60;0.60;;;12.00;74.20;;;;;;5055301;28;20246;-65
2022/04/24 09:39:47;;;;;;;0.75;0.70;;;12.00;74.10;;;;;;5056068;28;20045;-65
2022/04/24 09:42:14;;;;;;;0.90;0.60;;;12.00;74.00;;;;;;5054805;28;20543;-65
2022/04/24 09:44:51;;;;;;;1.02;0.80;;;12.10;73.90;;;;;;5055402;28;20036;-65
2022/04/24 09:47:24;;;;;;;0.80;0.80;;;12.10;73.60;;;;;;5053503;28;20032;-65
2022/04/24 09:49:50;;;;;;;1.70;1.50;;;12.20;73.40;;;;;;5055269;28;20041;-65
2022/04/24 09:52:24;;;;;;;0.80;0.73;;;12.20;73.40;;;;;;5055912;28;20032;-64
2022/04/24 09:54:54;;;;;;;0.65;0.65;;;12.30;73.10;;;;;;5055987;28;20040;-65
2022/04/24 09:57:23;;;;;;;1.20;1.00;;;12.30;73.10;;;;;;5054918;28;20125;-65
2022/04/24 09:59:53;;;;;;;0.93;0.90;;;12.30;72.80;;;;;;5051829;28;20041;-63
2022/04/24 10:02:20;;;;;;;1.42;1.33;;;12.40;72.80;;;;;;5055593;28;20061;-65
2022/04/24 10:04:46;;;;;;;1.60;1.38;;;12.40;72.60;;;;;;5056551;28;20048;-65
2022/04/24 10:07:14;;;;;;;2.47;2.38;;;12.50;72.50;;;;;;5054819;28;20105;-65
2022/04/24 10:09:42;;;;;;;1.80;1.70;;;12.50;72.30;;;;;;5057093;28;20048;-64
2022/04/24 10:12:11;;;;;;;1.50;1.40;;;12.60;72.30;;;;;;5055398;28;20277;-65
2022/04/24 10:14:49;;;;;;;1.00;1.00;;;12.60;72.00;;;;;;5054314;28;20116;-65
2022/04/24 10:17:52;;;;;;;0.73;0.73;;;12.60;72.10;;;;;;5055253;28;20463;-65
2022/04/24 10:20:46;;;;;;;0.90;0.70;;;12.70;71.40;;;;;;5055781;28;20025;-65
2022/04/24 10:23:12;;;;;;;0.80;0.77;;;12.80;71.30;;;;;;5055717;28;20045;-65
2022/04/24 10:25:39;;;;;;;0.77;0.75;;;12.90;71.40;;;;;;5055450;28;20039;-66
2022/04/24 10:28:16;;;;;;;1.48;1.38;;;12.90;71.30;;;;;;5055795;28;20028;-65
2022/04/24 10:30:57;;;;;;;0.93;0.47;;;13.00;71.30;;;;;;5057716;28;20024;-65
2022/04/24 10:33:26;;;;;;;0.55;0.40;;;13.00;70.90;;;;;;5056368;28;20443;-65
2022/04/24 10:36:13;;;;;;;1.35;0.50;;;13.10;70.70;;;;;;5054978;28;20037;-65
2022/04/24 10:39:14;;;;;;;0.65;0.47;;;13.20;70.40;;;;;;5054807;28;20022;-65
2022/04/24 10:41:39;;;;;;;0.40;0.20;;;13.30;69.00;;;;;;5054226;28;20033;-65
2022/04/24 10:44:12;;;;;;;0.50;0.30;;;13.30;69.20;;;;;;5057435;28;20047;-64
2022/04/24 10:46:42;;;;;;;0.73;0.20;;;13.40;69.30;;;;;;5060263;28;20032;-64
2022/04/24 10:49:10;;;;;;;1.10;0.30;;;13.40;69.40;;;;;;5061073;28;20056;-65
2022/04/24 10:51:38;;;;;;;0.52;0.40;;;13.40;68.40;;;;;;5059670;28;20025;-65
2022/04/24 10:54:11;;;;;;;1.50;0.20;;;13.50;68.00;;;;;;5059784;28;20127;-65
2022/04/24 10:56:38;;;;;;;0.40;0.22;;;13.50;67.70;;;;;;5059829;28;20119;-65
2022/04/24 10:59:15;;;;;;;0.32;0.22;;;13.60;67.90;;;;;;5060577;28;20040;-65
2022/04/24 11:01:47;;;;;;;0.30;0.20;;;13.60;66.80;;;;;;5061655;28;20028;-65
2022/04/24 11:04:15;;;;;;;0.50;0.28;;;13.60;66.60;;;;;;5059938;28;20036;-65
2022/04/24 11:06:58;;;;;;;1.50;1.15;;;13.60;65.20;;;;;;5057722;28;20399;-65
2022/04/24 11:09:29;;;;;;;3.85;2.80;;;13.60;64.80;;;;;;5061298;28;20755;-65
2022/04/24 11:12:05;;;;;;;1.17;0.75;;;13.60;65.90;;;;;;5058970;28;20033;-64
2022/04/24 11:14:31;;;;;;;0.40;0.40;;;13.60;63.60;;;;;;5060205;28;20056;-65
2022/04/24 11:16:58;;;;;;;0.98;0.40;;;13.60;64.70;;;;;;5059768;28;20041;-65
2022/04/24 11:19:28;;;;;;;0.30;0.30;;;13.60;65.20;;;;;;5060777;28;20064;-65
2022/04/24 11:22:04;;;;;;;0.70;0.70;;;13.60;65.00;;;;;;5059692;28;20044;-65
2022/04/24 11:24:31;;;;;;;0.40;0.30;;;13.70;65.00;;;;;;5059399;28;20060;-65
2022/04/24 11:27:02;;;;;;;0.93;0.43;;;13.70;64.80;;;;;;5059396;28;20043;-65
2022/04/24 11:29:28;;;;;;;0.17;0.17;;;13.70;64.50;;;;;;5064711;28;20028;-65
2022/04/24 11:31:55;;;;;;;0.63;0.32;;;13.70;64.30;;;;;;5059608;28;20045;-65
2022/04/24 11:34:22;;;;;;;0.55;0.50;;;13.80;64.80;;;;;;5057205;28;20034;-65
2022/04/24 11:36:50;;;;;;;0.50;0.40;;;13.80;64.10;;;;;;5058899;28;20086;-66
2022/04/24 11:39:17;;;;;;;1.38;0.20;;;13.90;63.60;;;;;;5059563;28;20036;-65
2022/04/24 11:41:43;;;;;;;1.20;0.20;;;13.90;64.30;;;;;;5059995;28;20059;-65
2022/04/24 11:52:48;;;;;;;0.88;0.60;;;13.90;63.40;;;;;;5059473;28;20036;-66
2022/04/24 11:56:01;;;;;;;0.13;0.10;;;13.90;64.10;;;;;;5059288;28;20041;-65
2022/04/24 11:58:12;;;;;;;0.40;0.40;;;13.90;64.60;;;;;;5060519;28;20493;-66
2022/04/24 12:00:38;;;;;;;0.17;0.17;;;14.00;65.30;;;;;;5058981;28;20040;-66
2022/04/24 12:03:08;;;;;;;0.20;0.20;;;14.00;65.40;;;;;;5055903;28;20410;-65
2022/04/24 12:05:33;;;;;;;0.20;0.10;;;14.00;65.10;;;;;;5055761;28;20043;-65
2022/04/24 12:08:00;;;;;;;0.40;0.40;;;14.00;65.40;;;;;;5061839;28;20041;-65
2022/04/24 12:10:26;;;;;;;1.83;0.68;;;14.00;65.20;;;;;;5058499;28;20033;-66
2022/04/24 12:12:53;;;;;;;1.10;1.00;;;14.00;64.80;;;;;;5056901;28;20064;-65
2022/04/24 12:15:22;;;;;;;0.70;0.70;;;14.00;65.00;;;;;;5058829;28;20103;-66
2022/04/24 12:17:58;;;;;;;0.88;0.60;;;14.00;64.70;;;;;;5054519;28;20499;-65
2022/04/24 12:20:40;;;;;;;0.30;0.30;;;14.00;64.20;;;;;;5058626;28;20412;-65
2022/04/24 12:23:13;;;;;;;0.57;0.50;;;14.00;64.10;;;;;;5052840;28;20452;-61
2022/04/24 12:25:53;;;;;;;1.80;1.45;;;13.90;63.10;;;;;;5057606;28;20036;-65
2022/04/24 12:28:37;;;;;;;1.70;1.30;;;14.00;63.50;;;;;;5054836;28;20131;-66
2022/04/24 12:31:04;;;;;;;0.75;0.57;;;13.90;63.10;;;;;;5058416;28;20129;-64
2022/04/24 12:33:31;;;;;;;0.20;0.20;;;13.90;63.40;;;;;;5055837;28;20047;-62
2022/04/24 12:36:08;;;;;;;0.43;0.30;;;13.90;62.70;;;;;;5058331;28;20044;-65
2022/04/24 12:38:33;;;;;;;0.50;0.50;;;14.00;62.70;;;;;;5057290;28;20033;-65
2022/04/24 12:40:59;;;;;;;0.45;0.20;;;13.90;63.80;;;;;;5057896;28;20518;-66
2022/04/24 12:43:30;;;;;;;0.15;0.15;;;14.00;63.80;;;;;;5054948;28;20076;-65
2022/04/24 12:45:57;;;;;;;2.47;0.13;;;14.00;63.70;;;;;;5056573;28;20033;-66
2022/04/24 12:48:23;;;;;;;0.30;0.20;;;14.00;63.50;;;;;;5054532;28;20534;-65
2022/04/24 12:50:50;;;;;;;0.75;0.28;;;14.00;63.70;;;;;;5056291;28;20407;-65